sensor_id;sensor_type;location;lat;lon;timestamp;pressure;altitude;pressure_sealevel;temperature;humidity
35248;BME280;21380;52.194;20.520;2023-12-29T00:02:16;100172.09;;;15.07;54.78
35248;BME280;21380;52.194;20.520;2023-12-29T00:04:41;100171.19;;;15.05;55.00
35248;BME280;21380;52.194;20.520;2023-12-29T00:07:08;100166.00;;;15.05;54.83
35248;BME280;21380;52.194;20.520;2023-12-29T00:09:34;100162.47;;;15.03;55.07
35248;BME280;21380;52.194;20.520;2023-12-29T00:12:07;100159.03;;;15.04;54.67
35248;BME280;21380;52.194;20.520;2023-12-29T00:14:36;100156.44;;;15.04;54.76
35248;BME280;21380;52.194;20.520;2023-12-29T00:17:03;100159.88;;;15.03;54.58
35248;BME280;21380;52.194;20.520;2023-12-29T00:19:29;100161.63;;;15.04;55.12
35248;BME280;21380;52.194;20.520;2023-12-29T00:21:55;100159.94;;;15.05;54.97
35248;BME280;21380;52.194;20.520;2023-12-29T00:24:20;100160.78;;;15.04;54.73
35248;BME280;21380;52.194;20.520;2023-12-29T00:26:46;100159.03;;;15.03;55.00
35248;BME280;21380;52.194;20.520;2023-12-29T00:29:14;100145.94;;;14.98;54.54
35248;BME280;21380;52.194;20.520;2023-12-29T00:31:41;100163.34;;;15.02;54.79
35248;BME280;21380;52.194;20.520;2023-12-29T00:34:07;100159.00;;;15.01;54.78
35248;BME280;21380;52.194;20.520;2023-12-29T00:36:33;100162.44;;;15.00;54.72
35248;BME280;21380;52.194;20.520;2023-12-29T00:38:59;100143.22;;;14.90;54.79
35248;BME280;21380;52.194;20.520;2023-12-29T00:41:25;100156.34;;;14.98;54.66
35248;BME280;21380;52.194;20.520;2023-12-29T00:43:51;100157.16;;;14.97;55.05
35248;BME280;21380;52.194;20.520;2023-12-29T00:46:17;100158.09;;;14.99;55.02
35248;BME280;21380;52.194;20.520;2023-12-29T00:48:43;100157.22;;;14.99;54.89
35248;BME280;21380;52.194;20.520;2023-12-29T00:51:09;100146.72;;;14.93;54.66
35248;BME280;21380;52.194;20.520;2023-12-29T00:53:35;100148.53;;;14.97;55.16
35248;BME280;21380;52.194;20.520;2023-12-29T00:56:02;100151.13;;;14.97;54.51
35248;BME280;21380;52.194;20.520;2023-12-29T00:58:27;100154.56;;;14.97;55.14
35248;BME280;21380;52.194;20.520;2023-12-29T01:00:54;100151.94;;;14.94;54.99
35248;BME280;21380;52.194;20.520;2023-12-29T01:03:20;100158.03;;;14.96;55.03
35248;BME280;21380;52.194;20.520;2023-12-29T01:05:46;100158.88;;;14.95;55.05
35248;BME280;21380;52.194;20.520;2023-12-29T01:08:12;100156.28;;;14.95;54.79
35248;BME280;21380;52.194;20.520;2023-12-29T01:10:38;100151.09;;;14.95;54.71
35248;BME280;21380;52.194;20.520;2023-12-29T01:13:04;100151.06;;;14.94;54.68
35248;BME280;21380;52.194;20.520;2023-12-29T01:15:30;100140.69;;;14.94;54.76
35248;BME280;21380;52.194;20.520;2023-12-29T01:17:56;100137.19;;;14.93;54.76
35248;BME280;21380;52.194;20.520;2023-12-29T01:20:22;100138.13;;;14.95;54.73
35248;BME280;21380;52.194;20.520;2023-12-29T01:22:47;100138.94;;;14.94;55.09
35248;BME280;21380;52.194;20.520;2023-12-29T01:25:13;100127.69;;;14.94;54.69
35248;BME280;21380;52.194;20.520;2023-12-29T01:27:39;100125.91;;;14.91;54.60
35248;BME280;21380;52.194;20.520;2023-12-29T01:30:06;100121.69;;;14.96;54.97
35248;BME280;21380;52.194;20.520;2023-12-29T01:32:32;100117.34;;;14.97;54.91
35248;BME280;21380;52.194;20.520;2023-12-29T01:34:58;100106.94;;;14.95;54.67
35248;BME280;21380;52.194;20.520;2023-12-29T01:37:23;100105.22;;;14.96;54.87
35248;BME280;21380;52.194;20.520;2023-12-29T01:39:49;100100.03;;;14.97;54.65
35248;BME280;21380;52.194;20.520;2023-12-29T01:42:15;100099.16;;;14.95;54.57
35248;BME280;21380;52.194;20.520;2023-12-29T01:44:41;100100.91;;;14.96;54.83
35248;BME280;21380;52.194;20.520;2023-12-29T01:47:14;100073.06;;;14.89;54.80
35248;BME280;21380;52.194;20.520;2023-12-29T01:49:43;100080.13;;;14.96;54.62
35248;BME280;21380;52.194;20.520;2023-12-29T01:52:09;100073.16;;;14.94;54.77
35248;BME280;21380;52.194;20.520;2023-12-29T01:54:36;100062.63;;;14.86;54.48
35248;BME280;21380;52.194;20.520;2023-12-29T01:57:04;100067.97;;;14.94;54.97
35248;BME280;21380;52.194;20.520;2023-12-29T01:59:31;100075.78;;;14.97;54.59
35248;BME280;21380;52.194;20.520;2023-12-29T02:01:57;100072.34;;;14.96;54.94
35248;BME280;21380;52.194;20.520;2023-12-29T02:04:24;100076.63;;;14.96;54.60
35248;BME280;21380;52.194;20.520;2023-12-29T02:06:51;100070.50;;;14.92;54.48
35248;BME280;21380;52.194;20.520;2023-12-29T02:09:17;100076.63;;;14.94;54.62
35248;BME280;21380;52.194;20.520;2023-12-29T02:11:43;100071.44;;;14.96;54.81
35248;BME280;21380;52.194;20.520;2023-12-29T02:14:10;100067.97;;;14.94;54.82
35248;BME280;21380;52.194;20.520;2023-12-29T02:19:41;100063.63;;;14.93;54.80
35248;BME280;21380;52.194;20.520;2023-12-29T02:22:10;100054.94;;;14.92;54.89
35248;BME280;21380;52.194;20.520;2023-12-29T02:24:36;100048.91;;;14.95;54.62
35248;BME280;21380;52.194;20.520;2023-12-29T02:27:07;100047.19;;;14.95;54.76
35248;BME280;21380;52.194;20.520;2023-12-29T02:29:38;100038.41;;;14.87;54.59
35248;BME280;21380;52.194;20.520;2023-12-29T02:32:07;100051.50;;;14.95;54.98
35248;BME280;21380;52.194;20.520;2023-12-29T02:34:36;100055.00;;;14.95;54.47
35248;BME280;21380;52.194;20.520;2023-12-29T02:37:04;100046.31;;;14.95;54.76
35248;BME280;21380;52.194;20.520;2023-12-29T02:39:31;100060.19;;;14.95;54.75
35248;BME280;21380;52.194;20.520;2023-12-29T02:41:57;100049.78;;;14.94;54.52
35248;BME280;21380;52.194;20.520;2023-12-29T02:44:23;100050.66;;;14.94;54.57
35248;BME280;21380;52.194;20.520;2023-12-29T02:46:49;100041.09;;;14.93;54.69
35248;BME280;21380;52.194;20.520;2023-12-29T02:49:14;100037.66;;;14.94;54.57
35248;BME280;21380;52.194;20.520;2023-12-29T02:51:40;100040.25;;;14.94;54.78
35248;BME280;21380;52.194;20.520;2023-12-29T02:54:06;100041.09;;;14.91;54.62
35248;BME280;21380;52.194;20.520;2023-12-29T02:56:33;100048.03;;;14.94;54.35
35248;BME280;21380;52.194;20.520;2023-12-29T02:59:00;100036.75;;;14.92;54.76
35248;BME280;21380;52.194;20.520;2023-12-29T03:01:26;100032.47;;;14.94;54.82
35248;BME280;21380;52.194;20.520;2023-12-29T03:03:54;100029.78;;;14.89;54.58
35248;BME280;21380;52.194;20.520;2023-12-29T03:06:20;100041.09;;;14.93;54.41
35248;BME280;21380;52.194;20.520;2023-12-29T03:08:46;100032.41;;;14.91;54.74
35248;BME280;21380;52.194;20.520;2023-12-29T03:11:12;100023.72;;;14.89;54.64
35248;BME280;21380;52.194;20.520;2023-12-29T03:13:38;100025.50;;;14.93;54.82
35248;BME280;21380;52.194;20.520;2023-12-29T03:16:04;100026.34;;;14.92;54.63
35248;BME280;21380;52.194;20.520;2023-12-29T03:18:30;100022.00;;;14.89;54.86
35248;BME280;21380;52.194;20.520;2023-12-29T03:20:56;100015.97;;;14.92;54.42
35248;BME280;21380;52.194;20.520;2023-12-29T03:23:22;100015.09;;;14.90;54.78
35248;BME280;21380;52.194;20.520;2023-12-29T03:25:47;100010.66;;;14.84;54.81
35248;BME280;21380;52.194;20.520;2023-12-29T03:28:13;100033.31;;;14.93;54.45
35248;BME280;21380;52.194;20.520;2023-12-29T03:30:39;100020.31;;;14.93;54.83
35248;BME280;21380;52.194;20.520;2023-12-29T03:33:05;100011.63;;;14.91;54.47
35248;BME280;21380;52.194;20.520;2023-12-29T03:35:31;99998.50;;;14.83;54.55
35248;BME280;21380;52.194;20.520;2023-12-29T03:37:56;100012.50;;;14.90;54.83
35248;BME280;21380;52.194;20.520;2023-12-29T03:40:22;100021.16;;;14.90;54.45
35248;BME280;21380;52.194;20.520;2023-12-29T03:42:48;100019.41;;;14.89;54.66
35248;BME280;21380;52.194;20.520;2023-12-29T03:45:14;100015.94;;;14.89;54.87
35248;BME280;21380;52.194;20.520;2023-12-29T03:47:40;100012.50;;;14.90;54.57
35248;BME280;21380;52.194;20.520;2023-12-29T03:50:06;100008.16;;;14.89;54.64
35248;BME280;21380;52.194;20.520;2023-12-29T03:52:32;100006.41;;;14.88;54.63
35248;BME280;21380;52.194;20.520;2023-12-29T03:54:58;99996.03;;;14.89;54.55
35248;BME280;21380;52.194;20.520;2023-12-29T03:57:24;99984.78;;;14.89;54.56
35248;BME280;21380;52.194;20.520;2023-12-29T03:59:49;99982.19;;;14.89;54.96
35248;BME280;21380;52.194;20.520;2023-12-29T04:02:15;99979.56;;;14.89;54.73
35248;BME280;21380;52.194;20.520;2023-12-29T04:04:43;99989.13;;;14.90;54.55
35248;BME280;21380;52.194;20.520;2023-12-29T04:07:09;99999.50;;;14.90;54.73
35248;BME280;21380;52.194;20.520;2023-12-29T04:09:34;99991.63;;;14.85;54.83
35248;BME280;21380;52.194;20.520;2023-12-29T04:12:00;99992.53;;;14.87;54.95
35248;BME280;21380;52.194;20.520;2023-12-29T04:14:26;99986.47;;;14.88;54.64
35248;BME280;21380;52.194;20.520;2023-12-29T04:16:52;99994.31;;;14.90;54.70
35248;BME280;21380;52.194;20.520;2023-12-29T04:19:18;99988.25;;;14.91;54.64
35248;BME280;21380;52.194;20.520;2023-12-29T04:21:44;99983.03;;;14.89;54.80
35248;BME280;21380;52.194;20.520;2023-12-29T04:24:09;99985.63;;;14.89;54.88
35248;BME280;21380;52.194;20.520;2023-12-29T04:26:36;99983.88;;;14.88;54.63
35248;BME280;21380;52.194;20.520;2023-12-29T04:29:02;99978.69;;;14.88;54.85
35248;BME280;21380;52.194;20.520;2023-12-29T04:31:28;99981.28;;;14.88;54.39
35248;BME280;21380;52.194;20.520;2023-12-29T04:33:54;99980.41;;;14.88;54.73
35248;BME280;21380;52.194;20.520;2023-12-29T04:36:20;99982.16;;;14.87;54.71
35248;BME280;21380;52.194;20.520;2023-12-29T04:38:46;99974.38;;;14.89;54.71
35248;BME280;21380;52.194;20.520;2023-12-29T04:41:12;99971.78;;;14.89;54.94
35248;BME280;21380;52.194;20.520;2023-12-29T04:43:38;99967.41;;;14.86;54.93
35248;BME280;21380;52.194;20.520;2023-12-29T04:46:04;99977.81;;;14.86;54.88
35248;BME280;21380;52.194;20.520;2023-12-29T04:48:30;99983.03;;;14.88;54.92
35248;BME280;21380;52.194;20.520;2023-12-29T04:50:56;99970.88;;;14.87;54.62
35248;BME280;21380;52.194;20.520;2023-12-29T04:53:22;99969.09;;;14.84;54.92
35248;BME280;21380;52.194;20.520;2023-12-29T04:55:48;99972.63;;;14.88;54.75
35248;BME280;21380;52.194;20.520;2023-12-29T04:58:14;99972.63;;;14.86;54.67
35248;BME280;21380;52.194;20.520;2023-12-29T05:00:40;99958.81;;;14.89;54.90
35248;BME280;21380;52.194;20.520;2023-12-29T05:03:05;99957.03;;;14.85;54.68
35248;BME280;21380;52.194;20.520;2023-12-29T05:05:32;99967.44;;;14.89;54.77
35248;BME280;21380;52.194;20.520;2023-12-29T05:07:57;99951.84;;;14.88;54.92
35248;BME280;21380;52.194;20.520;2023-12-29T05:10:23;99955.38;;;14.90;55.09
35248;BME280;21380;52.194;20.520;2023-12-29T05:12:49;99954.47;;;14.89;55.05
35248;BME280;21380;52.194;20.520;2023-12-29T05:15:15;99941.38;;;14.82;54.90
35248;BME280;21380;52.194;20.520;2023-12-29T05:17:41;99956.19;;;14.89;55.08
35248;BME280;21380;52.194;20.520;2023-12-29T05:20:07;99963.16;;;14.91;54.94
35248;BME280;21380;52.194;20.520;2023-12-29T05:22:33;99964.03;;;14.92;54.75
35248;BME280;21380;52.194;20.520;2023-12-29T05:24:59;99962.28;;;14.91;54.69
35248;BME280;21380;52.194;20.520;2023-12-29T05:27:26;99964.03;;;14.92;54.76
35248;BME280;21380;52.194;20.520;2023-12-29T05:29:52;99965.78;;;14.93;55.06
35248;BME280;21380;52.194;20.520;2023-12-29T05:32:18;99956.25;;;14.92;54.99
35248;BME280;21380;52.194;20.520;2023-12-29T05:34:44;99962.28;;;14.91;54.60
35248;BME280;21380;52.194;20.520;2023-12-29T05:37:10;99958.81;;;14.90;54.83
35248;BME280;21380;52.194;20.520;2023-12-29T05:39:36;99968.38;;;14.93;54.53
35248;BME280;21380;52.194;20.520;2023-12-29T05:42:01;99961.47;;;14.94;54.74
35248;BME280;21380;52.194;20.520;2023-12-29T05:44:27;99955.38;;;14.90;54.97
35248;BME280;21380;52.194;20.520;2023-12-29T05:46:53;99961.44;;;14.92;55.13
35248;BME280;21380;52.194;20.520;2023-12-29T05:49:24;99945.00;;;14.93;54.94
35248;BME280;21380;52.194;20.520;2023-12-29T05:51:50;99927.53;;;14.83;54.77
35248;BME280;21380;52.194;20.520;2023-12-29T05:54:16;99937.19;;;14.91;55.42
35248;BME280;21380;52.194;20.520;2023-12-29T05:56:43;99940.66;;;14.92;54.77
35248;BME280;21380;52.194;20.520;2023-12-29T05:59:09;99932.84;;;14.90;54.88
35248;BME280;21380;52.194;20.520;2023-12-29T06:01:35;99933.72;;;14.91;54.70
35248;BME280;21380;52.194;20.520;2023-12-29T06:04:01;99938.94;;;14.93;55.12
35248;BME280;21380;52.194;20.520;2023-12-29T06:06:27;99938.94;;;14.93;55.20
35248;BME280;21380;52.194;20.520;2023-12-29T06:08:54;99938.06;;;14.92;54.77
35248;BME280;21380;52.194;20.520;2023-12-29T06:11:19;99940.63;;;14.90;54.68
35248;BME280;21380;52.194;20.520;2023-12-29T06:13:46;99922.44;;;14.89;55.22
35248;BME280;21380;52.194;20.520;2023-12-29T06:16:21;99919.00;;;14.90;54.92
35248;BME280;21380;52.194;20.520;2023-12-29T06:18:48;99925.97;;;14.93;55.16
35248;BME280;21380;52.194;20.520;2023-12-29T06:21:13;99940.69;;;14.94;54.77
35248;BME280;21380;52.194;20.520;2023-12-29T06:23:39;99929.41;;;14.93;54.81
35248;BME280;21380;52.194;20.520;2023-12-29T06:26:05;99925.13;;;14.94;55.02
35248;BME280;21380;52.194;20.520;2023-12-29T06:28:38;99924.22;;;14.93;55.11
35248;BME280;21380;52.194;20.520;2023-12-29T06:31:04;99925.97;;;14.93;54.87
35248;BME280;21380;52.194;20.520;2023-12-29T06:33:30;99938.09;;;14.94;55.22
35248;BME280;21380;52.194;20.520;2023-12-29T06:35:56;99931.13;;;14.91;55.04
35248;BME280;21380;52.194;20.520;2023-12-29T06:38:22;99944.16;;;14.94;54.93
35248;BME280;21380;52.194;20.520;2023-12-29T06:40:47;99946.75;;;14.94;54.67
35248;BME280;21380;52.194;20.520;2023-12-29T06:43:13;99932.88;;;14.92;54.83
35248;BME280;21380;52.194;20.520;2023-12-29T06:45:39;99921.63;;;14.93;55.14
35248;BME280;21380;52.194;20.520;2023-12-29T06:48:05;99936.38;;;14.94;54.73
35248;BME280;21380;52.194;20.520;2023-12-29T06:50:31;99936.38;;;14.94;55.16
35248;BME280;21380;52.194;20.520;2023-12-29T06:52:57;99940.72;;;14.95;55.05
35248;BME280;21380;52.194;20.520;2023-12-29T06:55:24;99940.72;;;14.95;54.92
35248;BME280;21380;52.194;20.520;2023-12-29T06:57:51;99933.78;;;14.94;55.09
35248;BME280;21380;52.194;20.520;2023-12-29T07:00:17;99926.81;;;14.93;55.26
35248;BME280;21380;52.194;20.520;2023-12-29T07:02:43;99933.78;;;14.94;55.27
35248;BME280;21380;52.194;20.520;2023-12-29T07:05:09;99919.94;;;14.95;54.94
35248;BME280;21380;52.194;20.520;2023-12-29T07:07:35;99904.34;;;14.95;55.02
35248;BME280;21380;52.194;20.520;2023-12-29T07:10:03;99900.03;;;14.97;54.78
35248;BME280;21380;52.194;20.520;2023-12-29T07:12:29;99901.75;;;14.95;55.18
35248;BME280;21380;52.194;20.520;2023-12-29T07:14:55;99903.50;;;14.96;54.96
35248;BME280;21380;52.194;20.520;2023-12-29T07:17:21;99897.41;;;14.94;55.13
35248;BME280;21380;52.194;20.520;2023-12-29T07:19:47;99894.81;;;14.96;55.01
35248;BME280;21380;52.194;20.520;2023-12-29T07:22:13;99896.59;;;14.98;54.74
35248;BME280;21380;52.194;20.520;2023-12-29T07:24:39;99893.97;;;14.97;55.15
35248;BME280;21380;52.194;20.520;2023-12-29T07:27:06;99887.09;;;14.99;54.88
35248;BME280;21380;52.194;20.520;2023-12-29T07:29:33;99890.53;;;14.98;54.97
35248;BME280;21380;52.194;20.520;2023-12-29T07:31:59;99891.44;;;15.00;54.95
35248;BME280;21380;52.194;20.520;2023-12-29T07:34:25;99887.94;;;14.98;55.00
35248;BME280;21380;52.194;20.520;2023-12-29T07:36:51;99890.56;;;14.99;55.42
35248;BME280;21380;52.194;20.520;2023-12-29T07:39:18;99888.81;;;14.98;55.05
35248;BME280;21380;52.194;20.520;2023-12-29T07:41:44;99891.44;;;15.00;55.28
35248;BME280;21380;52.194;20.520;2023-12-29T07:44:10;99887.09;;;15.00;55.25
35248;BME280;21380;52.194;20.520;2023-12-29T07:46:38;99887.13;;;15.02;55.00
35248;BME280;21380;52.194;20.520;2023-12-29T07:49:04;99883.59;;;14.97;55.20
35248;BME280;21380;52.194;20.520;2023-12-29T07:51:30;99891.47;;;15.01;55.28
35248;BME280;21380;52.194;20.520;2023-12-29T07:53:57;99885.41;;;15.02;55.06
35248;BME280;21380;52.194;20.520;2023-12-29T07:56:23;99874.97;;;14.99;55.22
35248;BME280;21380;52.194;20.520;2023-12-29T07:58:49;99883.69;;;15.03;55.00
35248;BME280;21380;52.194;20.520;2023-12-29T08:01:15;99879.34;;;15.03;55.25
35248;BME280;21380;52.194;20.520;2023-12-29T08:03:40;99879.34;;;15.03;55.24
35248;BME280;21380;52.194;20.520;2023-12-29T08:06:06;99872.44;;;15.02;55.33
35248;BME280;21380;52.194;20.520;2023-12-29T08:08:32;99868.09;;;15.03;55.21
35248;BME280;21380;52.194;20.520;2023-12-29T08:10:58;99878.47;;;15.03;55.03
35248;BME280;21380;52.194;20.520;2023-12-29T08:13:24;99881.94;;;15.03;55.21
35248;BME280;21380;52.194;20.520;2023-12-29T08:15:50;99871.59;;;15.05;55.18
35248;BME280;21380;52.194;20.520;2023-12-29T08:18:16;99873.28;;;15.03;55.18
35248;BME280;21380;52.194;20.520;2023-12-29T08:20:42;99871.59;;;15.05;55.25
35248;BME280;21380;52.194;20.520;2023-12-29T08:23:09;99866.34;;;15.02;55.27
35248;BME280;21380;52.194;20.520;2023-12-29T08:25:34;99875.91;;;15.04;54.96
35248;BME280;21380;52.194;20.520;2023-12-29T08:28:02;99875.06;;;15.05;55.44
35248;BME280;21380;52.194;20.520;2023-12-29T08:30:28;99873.31;;;15.04;55.23
35248;BME280;21380;52.194;20.520;2023-12-29T08:32:54;99882.00;;;15.06;55.02
35248;BME280;21380;52.194;20.520;2023-12-29T08:35:20;99871.59;;;15.06;55.15
35248;BME280;21380;52.194;20.520;2023-12-29T08:37:46;99869.84;;;15.05;55.11
35248;BME280;21380;52.194;20.520;2023-12-29T08:40:12;99868.13;;;15.06;55.00
35248;BME280;21380;52.194;20.520;2023-12-29T08:42:38;99863.81;;;15.06;55.27
35248;BME280;21380;52.194;20.520;2023-12-29T08:45:04;99861.22;;;15.08;55.35
35248;BME280;21380;52.194;20.520;2023-12-29T08:47:30;99838.59;;;14.98;55.15
35248;BME280;21380;52.194;20.520;2023-12-29T08:49:56;99862.06;;;15.07;54.95
35248;BME280;21380;52.194;20.520;2023-12-29T08:52:22;99850.75;;;15.00;55.03
35248;BME280;21380;52.194;20.520;2023-12-29T08:54:48;99853.44;;;15.06;55.21
35248;BME280;21380;52.194;20.520;2023-12-29T08:57:14;99862.13;;;15.08;55.34
35248;BME280;21380;52.194;20.520;2023-12-29T08:59:39;99862.06;;;15.05;54.93
35248;BME280;21380;52.194;20.520;2023-12-29T09:02:06;99862.97;;;15.09;55.14
35248;BME280;21380;52.194;20.520;2023-12-29T09:04:32;99860.38;;;15.07;55.53
35248;BME280;21380;52.194;20.520;2023-12-29T09:06:57;99868.19;;;15.11;55.23
35248;BME280;21380;52.194;20.520;2023-12-29T09:09:23;99870.78;;;15.09;55.16
35248;BME280;21380;52.194;20.520;2023-12-29T09:11:50;99866.47;;;15.11;55.33
35248;BME280;21380;52.194;20.520;2023-12-29T09:14:17;99869.94;;;15.12;55.28
35248;BME280;21380;52.194;20.520;2023-12-29T09:16:45;99861.31;;;15.13;55.31
35248;BME280;21380;52.194;20.520;2023-12-29T09:19:17;99867.34;;;15.13;55.39
35248;BME280;21380;52.194;20.520;2023-12-29T09:21:47;99860.44;;;15.14;55.04
35248;BME280;21380;52.194;20.520;2023-12-29T09:24:15;99858.69;;;15.13;55.19
35248;BME280;21380;52.194;20.520;2023-12-29T09:26:40;99850.91;;;15.13;55.50
35248;BME280;21380;52.194;20.520;2023-12-29T09:29:07;99856.13;;;15.14;55.39
35248;BME280;21380;52.194;20.520;2023-12-29T09:31:33;99856.13;;;15.16;55.32
35248;BME280;21380;52.194;20.520;2023-12-29T09:33:59;99847.47;;;15.15;55.54
35248;BME280;21380;52.194;20.520;2023-12-29T09:36:26;99848.34;;;15.16;55.31
35248;BME280;21380;52.194;20.520;2023-12-29T09:38:52;99843.97;;;15.12;55.32
35248;BME280;21380;52.194;20.520;2023-12-29T09:41:20;99845.78;;;15.17;55.25
35248;BME280;21380;52.194;20.520;2023-12-29T09:43:48;99841.44;;;15.18;55.23
35248;BME280;21380;52.194;20.520;2023-12-29T09:46:16;99835.41;;;15.19;55.13
35248;BME280;21380;52.194;20.520;2023-12-29T09:48:47;99841.44;;;15.19;55.77
35248;BME280;21380;52.194;20.520;2023-12-29T09:51:16;99836.25;;;15.18;55.76
35248;BME280;21380;52.194;20.520;2023-12-29T09:53:43;99839.75;;;15.20;55.87
35248;BME280;21380;52.194;20.520;2023-12-29T09:56:09;99831.97;;;15.21;55.92
35248;BME280;21380;52.194;20.520;2023-12-29T09:58:35;99826.75;;;15.21;55.97
35248;BME280;21380;52.194;20.520;2023-12-29T10:01:07;99827.63;;;15.22;55.72
35248;BME280;21380;52.194;20.520;2023-12-29T10:03:46;99825.88;;;15.21;55.80
35248;BME280;21380;52.194;20.520;2023-12-29T10:06:37;99839.75;;;15.20;55.74
35248;BME280;21380;52.194;20.520;2023-12-29T10:09:10;99830.22;;;15.23;55.74
35248;BME280;21380;52.194;20.520;2023-12-29T10:11:38;99830.22;;;15.22;55.82
35248;BME280;21380;52.194;20.520;2023-12-29T10:17:13;99836.31;;;15.24;55.69
35248;BME280;21380;52.194;20.520;2023-12-29T10:19:51;99826.78;;;15.23;55.81
35248;BME280;21380;52.194;20.520;2023-12-29T10:23:27;99825.03;;;15.22;55.90
35248;BME280;21380;52.194;20.520;2023-12-29T10:25:34;99825.88;;;15.21;55.76
35248;BME280;21380;52.194;20.520;2023-12-29T10:28:01;99832.88;;;15.25;55.69
35248;BME280;21380;52.194;20.520;2023-12-29T10:30:28;99828.53;;;15.26;55.69
35248;BME280;21380;52.194;20.520;2023-12-29T10:32:55;99827.69;;;15.27;55.76
35248;BME280;21380;52.194;20.520;2023-12-29T10:35:21;99834.63;;;15.28;56.04
35248;BME280;21380;52.194;20.520;2023-12-29T10:37:47;99828.53;;;15.24;55.94
35248;BME280;21380;52.194;20.520;2023-12-29T10:40:17;99829.47;;;15.31;55.87
35248;BME280;21380;52.194;20.520;2023-12-29T10:42:56;99823.41;;;15.29;55.67
35248;BME280;21380;52.194;20.520;2023-12-29T10:45:23;99824.22;;;15.26;55.91
35248;BME280;21380;52.194;20.520;2023-12-29T10:47:52;99826.84;;;15.29;56.01
35248;BME280;21380;52.194;20.520;2023-12-29T10:50:19;99819.03;;;15.26;55.70
35248;BME280;21380;52.194;20.520;2023-12-29T10:52:45;99833.81;;;15.32;56.11
35248;BME280;21380;52.194;20.520;2023-12-29T10:55:12;99831.22;;;15.33;55.93
35248;BME280;21380;52.194;20.520;2023-12-29T10:57:39;99831.22;;;15.33;55.77
35248;BME280;21380;52.194;20.520;2023-12-29T11:00:06;99834.66;;;15.32;56.00
35248;BME280;21380;52.194;20.520;2023-12-29T11:02:34;99823.44;;;15.33;56.10
35248;BME280;21380;52.194;20.520;2023-12-29T11:05:05;99815.63;;;15.33;55.77
35248;BME280;21380;52.194;20.520;2023-12-29T11:10:06;99813.94;;;15.35;55.87
35248;BME280;21380;52.194;20.520;2023-12-29T11:12:35;99806.97;;;15.31;55.92
35248;BME280;21380;52.194;20.520;2023-12-29T11:15:03;99802.63;;;15.33;56.13
35248;BME280;21380;52.194;20.520;2023-12-29T11:17:30;99798.34;;;15.35;55.88
35248;BME280;21380;52.194;20.520;2023-12-29T11:19:59;99799.19;;;15.34;56.06
35248;BME280;21380;52.194;20.520;2023-12-29T11:22:27;99781.84;;;15.33;56.22
35248;BME280;21380;52.194;20.520;2023-12-29T11:24:53;99788.78;;;15.36;55.87
35248;BME280;21380;52.194;20.520;2023-12-29T11:27:21;99784.50;;;15.36;55.91
35248;BME280;21380;52.194;20.520;2023-12-29T11:29:47;99779.28;;;15.36;56.12
35248;BME280;21380;52.194;20.520;2023-12-29T11:32:22;99772.38;;;15.38;56.08
35248;BME280;21380;52.194;20.520;2023-12-29T11:35:10;99768.91;;;15.36;56.06
35248;BME280;21380;52.194;20.520;2023-12-29T11:41:05;99751.44;;;15.23;56.03
35248;BME280;21380;52.194;20.520;2023-12-29T11:43:34;99768.84;;;15.33;56.29
35248;BME280;21380;52.194;20.520;2023-12-29T11:46:01;99755.91;;;15.35;55.97
35248;BME280;21380;52.194;20.520;2023-12-29T11:48:58;99753.25;;;15.33;56.19
35248;BME280;21380;52.194;20.520;2023-12-29T11:51:28;99758.50;;;15.36;56.26
35248;BME280;21380;52.194;20.520;2023-12-29T11:53:54;99743.75;;;15.35;56.26
35248;BME280;21380;52.194;20.520;2023-12-29T11:56:20;99746.38;;;15.35;56.26
35248;BME280;21380;52.194;20.520;2023-12-29T11:58:46;99722.84;;;15.24;55.93
35248;BME280;21380;52.194;20.520;2023-12-29T12:01:12;99754.16;;;15.34;56.25
35248;BME280;21380;52.194;20.520;2023-12-29T12:03:38;99749.75;;;15.30;56.21
35248;BME280;21380;52.194;20.520;2023-12-29T12:06:04;99748.91;;;15.32;55.88
35248;BME280;21380;52.194;20.520;2023-12-29T12:08:37;99742.78;;;15.27;55.96
35248;BME280;21380;52.194;20.520;2023-12-29T12:13:59;99729.81;;;15.26;56.10
35248;BME280;21380;52.194;20.520;2023-12-29T12:19:13;99738.44;;;15.24;56.38
35248;BME280;21380;52.194;20.520;2023-12-29T12:21:40;99730.69;;;15.26;56.20
35248;BME280;21380;52.194;20.520;2023-12-29T12:24:07;99732.41;;;15.27;56.09
35248;BME280;21380;52.194;20.520;2023-12-29T12:26:34;99729.81;;;15.27;55.99
35248;BME280;21380;52.194;20.520;2023-12-29T12:29:04;99729.78;;;15.22;55.89
35248;BME280;21380;52.194;20.520;2023-12-29T12:31:30;99735.00;;;15.24;56.20
35248;BME280;21380;52.194;20.520;2023-12-29T12:33:57;99729.78;;;15.22;56.11
35248;BME280;21380;52.194;20.520;2023-12-29T12:36:23;99746.22;;;15.20;56.17
35248;BME280;21380;52.194;20.520;2023-12-29T12:38:54;99739.34;;;15.25;56.34
35248;BME280;21380;52.194;20.520;2023-12-29T12:41:24;99738.50;;;15.28;55.98
35248;BME280;21380;52.194;20.520;2023-12-29T12:46:44;99727.19;;;15.24;56.14
35248;BME280;21380;52.194;20.520;2023-12-29T12:49:15;99740.25;;;15.30;56.34
35248;BME280;21380;52.194;20.520;2023-12-29T12:51:42;99725.50;;;15.28;56.29
35248;BME280;21380;52.194;20.520;2023-12-29T12:54:08;99731.59;;;15.31;55.93
35248;BME280;21380;52.194;20.520;2023-12-29T12:56:35;99734.19;;;15.31;56.11
35248;BME280;21380;52.194;20.520;2023-12-29T12:59:02;99731.59;;;15.33;56.00
35248;BME280;21380;52.194;20.520;2023-12-29T13:01:29;99736.81;;;15.34;56.21
35248;BME280;21380;52.194;20.520;2023-12-29T13:04:00;99730.72;;;15.31;56.34
35248;BME280;21380;52.194;20.520;2023-12-29T13:06:26;99724.66;;;15.32;56.17
35248;BME280;21380;52.194;20.520;2023-12-29T13:08:52;99732.47;;;15.33;56.00